createdAt,value
2018-02-25T00:01:57.315Z,2.80
2018-02-25T00:04:25.515Z,4.10
2018-02-25T00:06:53.006Z,3.73
2018-02-25T00:09:20.448Z,3.50
2018-02-25T00:11:47.875Z,3.40
2018-02-25T00:14:15.321Z,3.20
2018-02-25T00:16:42.761Z,3.50
2018-02-25T00:19:10.979Z,3.13
2018-02-25T00:21:38.417Z,3.10
2018-02-25T00:24:06.620Z,4.17
2018-02-25T00:26:34.048Z,3.70
2018-02-25T00:29:01.483Z,3.20
2018-02-25T00:31:28.920Z,2.50
2018-02-25T00:33:57.128Z,2.83
2018-02-25T00:36:24.568Z,4.77
2018-02-25T00:38:52.026Z,4.43
2018-02-25T00:41:19.461Z,3.57
2018-02-25T00:43:46.911Z,3.40
2018-02-25T00:46:14.348Z,2.97
2018-02-25T00:48:41.783Z,2.97
2018-02-25T00:51:09.228Z,3.60
2018-02-25T00:53:36.667Z,3.30
2018-02-25T00:56:04.107Z,4.27
2018-02-25T00:58:31.547Z,3.73
2018-02-25T01:00:58.988Z,2.97
2018-02-25T01:03:26.433Z,4.20
2018-02-25T01:05:53.864Z,3.40
2018-02-25T01:08:21.316Z,4.60
2018-02-25T01:10:48.756Z,4.23
2018-02-25T01:13:16.201Z,3.27
2018-02-25T01:15:43.636Z,3.13
2018-02-25T01:18:11.090Z,3.37
2018-02-25T01:20:38.519Z,3.97
2018-02-25T01:23:05.948Z,4.17
2018-02-25T01:25:34.155Z,4.20
2018-02-25T01:28:01.588Z,5.07
2018-02-25T01:30:29.045Z,3.90
2018-02-25T01:32:56.475Z,3.10
2018-02-25T01:35:23.915Z,4.13
2018-02-25T01:37:52.121Z,4.10
2018-02-25T01:40:19.559Z,3.83
2018-02-25T01:42:47.010Z,3.67
2018-02-25T01:45:14.443Z,3.80
2018-02-25T01:47:41.883Z,3.30
2018-02-25T01:50:10.091Z,4.00
2018-02-25T01:52:37.528Z,3.93
2018-02-25T01:55:05.737Z,3.90
2018-02-25T01:57:33.172Z,4.50
2018-02-25T02:00:00.636Z,4.27
2018-02-25T02:02:28.895Z,3.53
2018-02-25T02:04:56.335Z,3.60
2018-02-25T02:07:23.777Z,4.57
2018-02-25T02:09:51.979Z,4.13
2018-02-25T02:12:19.428Z,4.60
2018-02-25T02:14:47.636Z,4.33
2018-02-25T02:17:15.072Z,4.10
2018-02-25T02:19:43.298Z,3.87
2018-02-25T02:22:10.741Z,4.33
2018-02-25T02:24:38.960Z,4.37
2018-02-25T02:27:06.400Z,4.37
2018-02-25T02:29:34.617Z,3.90
2018-02-25T02:32:02.130Z,4.50
2018-02-25T02:34:30.268Z,4.77
2018-02-25T02:36:57.709Z,5.63
2018-02-25T02:39:25.932Z,4.23
2018-02-25T02:41:53.376Z,4.83
2018-02-25T02:44:20.809Z,4.73
2018-02-25T02:46:48.245Z,4.83
2018-02-25T02:49:15.689Z,5.20
2018-02-25T02:51:43.128Z,6.13
2018-02-25T02:54:11.340Z,5.63
2018-02-25T02:56:38.785Z,3.93
2018-02-25T02:59:07.012Z,4.93
2018-02-25T03:01:34.457Z,5.40
2018-02-25T03:04:01.901Z,4.90
2018-02-25T03:06:30.109Z,4.37
2018-02-25T03:08:57.552Z,5.20
2018-02-25T03:11:25.768Z,5.10
2018-02-25T03:13:53.208Z,3.83
2018-02-25T03:16:21.420Z,5.70
2018-02-25T03:18:48.861Z,4.53
2018-02-25T03:21:17.073Z,5.20
2018-02-25T03:23:44.514Z,5.30
2018-02-25T03:26:12.725Z,5.87
2018-02-25T03:28:40.166Z,5.33
2018-02-25T03:31:07.601Z,5.30
2018-02-25T03:33:35.048Z,6.83
2018-02-25T03:36:02.505Z,5.00
2018-02-25T03:41:04.600Z,5.93
2018-02-25T03:43:32.050Z,5.67
2018-02-25T03:46:00.255Z,5.87
2018-02-25T03:48:27.702Z,6.73
2018-02-25T03:50:56.919Z,6.43
2018-02-25T03:53:25.128Z,5.87
2018-02-25T03:55:52.573Z,5.43
2018-02-25T03:58:20.781Z,6.47
2018-02-25T04:00:48.236Z,5.53
2018-02-25T04:03:15.675Z,6.60
2018-02-25T04:05:43.116Z,7.30
2018-02-25T04:08:10.553Z,5.43
2018-02-25T04:10:38.009Z,5.30
2018-02-25T04:13:05.448Z,6.10
2018-02-25T04:15:32.920Z,6.27
2018-02-25T04:18:00.373Z,5.97
2018-02-25T04:20:27.812Z,6.40
2018-02-25T04:22:55.257Z,6.40
2018-02-25T04:25:22.716Z,6.80
2018-02-25T04:27:50.168Z,6.17
2018-02-25T04:30:18.384Z,6.30
2018-02-25T04:32:45.827Z,6.13
2018-02-25T04:35:13.268Z,5.60
2018-02-25T04:37:40.720Z,5.40
2018-02-25T04:40:08.155Z,6.27
2018-02-25T04:42:35.612Z,6.10
2018-02-25T04:45:03.061Z,5.90
2018-02-25T04:47:30.509Z,6.90
2018-02-25T04:49:57.958Z,6.23
2018-02-25T04:52:25.398Z,5.73
2018-02-25T04:54:52.836Z,5.57
2018-02-25T04:57:20.285Z,6.70
2018-02-25T04:59:47.743Z,6.63
2018-02-25T05:02:15.188Z,5.53
2018-02-25T05:04:42.904Z,6.33
2018-02-25T05:07:10.344Z,5.70
2018-02-25T05:09:37.787Z,6.47
2018-02-25T05:12:05.244Z,5.57
2018-02-25T05:14:32.683Z,6.47
2018-02-25T05:17:00.120Z,6.00
2018-02-25T05:19:27.567Z,5.57
2018-02-25T05:21:55.000Z,7.07
2018-02-25T05:24:23.215Z,6.60
2018-02-25T05:26:50.647Z,6.33
2018-02-25T05:29:18.856Z,5.87
2018-02-25T05:31:46.301Z,6.97
2018-02-25T05:34:14.516Z,7.43
2018-02-25T05:36:41.956Z,5.40
2018-02-25T05:39:10.165Z,6.60
2018-02-25T05:41:37.613Z,5.83
2018-02-25T05:44:05.824Z,5.93
2018-02-25T05:46:33.275Z,6.10
2018-02-25T05:49:01.502Z,5.97
2018-02-25T05:51:28.937Z,5.23
2018-02-25T05:53:56.396Z,5.53
2018-02-25T05:56:24.602Z,6.30
2018-02-25T05:58:52.053Z,6.33
2018-02-25T06:01:20.260Z,4.90
2018-02-25T06:03:47.713Z,5.80
2018-02-25T06:06:15.148Z,6.03
2018-02-25T06:08:42.612Z,6.60
2018-02-25T06:11:10.054Z,6.10
2018-02-25T06:13:37.514Z,6.40
2018-02-25T06:16:04.970Z,5.83
2018-02-25T06:18:33.209Z,6.30
2018-02-25T06:21:00.658Z,6.07
2018-02-25T06:23:28.131Z,7.20
2018-02-25T06:25:55.576Z,4.90
2018-02-25T06:28:23.023Z,6.20
2018-02-25T06:30:51.244Z,4.77
2018-02-25T06:33:18.688Z,5.70
2018-02-25T06:35:46.908Z,6.47
2018-02-25T06:38:14.343Z,5.67
2018-02-25T06:40:42.565Z,5.17
2018-02-25T06:43:10.012Z,6.00
2018-02-25T06:45:37.456Z,4.37
2018-02-25T06:48:05.670Z,4.63
2018-02-25T06:50:33.116Z,5.10
2018-02-25T06:53:01.325Z,6.23
2018-02-25T06:55:28.789Z,6.10
2018-02-25T06:57:56.985Z,4.43
2018-02-25T07:00:25.242Z,5.20
2018-02-25T07:02:53.456Z,4.70
2018-02-25T07:05:20.909Z,5.20
2018-02-25T07:07:48.352Z,3.90
2018-02-25T07:10:15.795Z,5.03
2018-02-25T07:12:43.240Z,4.90
2018-02-25T07:15:10.695Z,5.07
2018-02-25T07:17:38.137Z,4.80
2018-02-25T07:20:06.353Z,5.07
2018-02-25T07:22:33.788Z,6.07
2018-02-25T07:25:01.992Z,4.40
2018-02-25T07:27:29.440Z,4.13
2018-02-25T07:29:57.650Z,3.90
2018-02-25T07:32:25.089Z,5.40
2018-02-25T07:34:52.525Z,4.40
2018-02-25T07:37:19.976Z,4.57
2018-02-25T07:39:47.418Z,5.13
2018-02-25T07:42:14.925Z,3.87
2018-02-25T07:44:42.310Z,5.80
2018-02-25T07:47:09.758Z,4.57
2018-02-25T07:49:37.200Z,3.93
2018-02-25T07:52:04.644Z,4.07
2018-02-25T07:54:32.844Z,5.43
2018-02-25T07:57:00.284Z,4.47
2018-02-25T07:59:27.725Z,3.97
2018-02-25T08:01:55.172Z,4.53
2018-02-25T08:04:22.604Z,3.33
2018-02-25T08:06:50.815Z,3.63
2018-02-25T08:09:18.248Z,4.63
2018-02-25T08:11:46.457Z,5.27
2018-02-25T08:14:13.896Z,4.60
2018-02-25T08:16:41.343Z,4.37
2018-02-25T08:19:08.810Z,4.70
2018-02-25T08:21:36.219Z,4.60
2018-02-25T08:24:04.432Z,3.80
2018-02-25T08:26:31.874Z,4.90
2018-02-25T08:29:00.084Z,4.30
2018-02-25T08:31:27.516Z,4.73
2018-02-25T08:33:55.738Z,3.70
2018-02-25T08:36:23.181Z,4.53
2018-02-25T08:38:51.402Z,4.33
2018-02-25T08:41:18.852Z,4.30
2018-02-25T08:43:46.292Z,4.97
2018-02-25T08:46:14.509Z,6.27
2018-02-25T08:48:41.952Z,5.20
2018-02-25T08:51:10.161Z,4.50
2018-02-25T08:53:37.600Z,5.37
2018-02-25T08:56:05.809Z,4.57
2018-02-25T08:58:33.252Z,4.67
2018-02-25T09:01:01.461Z,4.93
2018-02-25T09:03:28.899Z,4.13
2018-02-25T09:05:56.340Z,5.50
2018-02-25T09:08:23.792Z,4.60
2018-02-25T09:10:51.237Z,4.37
2018-02-25T09:13:18.697Z,5.67
2018-02-25T09:15:46.900Z,5.17
2018-02-25T09:18:14.360Z,3.90
2018-02-25T09:20:42.550Z,4.03
2018-02-25T09:23:10.006Z,5.30
2018-02-25T09:25:38.213Z,4.80
2018-02-25T09:28:05.651Z,3.80
2018-02-25T09:30:33.851Z,4.30
2018-02-25T09:33:01.280Z,4.50
2018-02-25T09:35:28.724Z,4.53
2018-02-25T09:37:56.168Z,4.80
2018-02-25T09:40:23.621Z,4.27
2018-02-25T09:42:51.061Z,5.70
2018-02-25T09:45:18.507Z,3.93
2018-02-25T09:47:45.948Z,4.80
2018-02-25T09:50:13.452Z,4.33
2018-02-25T09:52:40.884Z,4.90
2018-02-25T09:55:08.329Z,4.50
2018-02-25T09:57:35.760Z,4.77
2018-02-25T10:00:03.209Z,4.20
2018-02-25T10:02:30.644Z,4.73
2018-02-25T10:04:58.082Z,4.10
2018-02-25T10:07:26.279Z,3.90
2018-02-25T10:09:54.488Z,4.80
2018-02-25T10:12:21.926Z,4.10
2018-02-25T10:14:50.132Z,4.10
2018-02-25T10:17:17.568Z,4.37
2018-02-25T10:19:45.008Z,4.30
2018-02-25T10:22:12.452Z,4.80
2018-02-25T10:24:39.892Z,5.23
2018-02-25T10:27:08.093Z,4.23
2018-02-25T10:29:35.540Z,4.23
2018-02-25T10:32:03.740Z,3.80
2018-02-25T10:34:31.183Z,4.70
2018-02-25T10:36:58.612Z,4.30
2018-02-25T10:39:26.064Z,4.40
2018-02-25T10:41:53.508Z,3.67
2018-02-25T10:44:20.940Z,4.10
2018-02-25T10:46:48.388Z,4.43
2018-02-25T10:49:15.829Z,3.67
2018-02-25T10:51:43.278Z,4.70
2018-02-25T10:54:11.476Z,3.77
2018-02-25T10:56:38.921Z,4.37
2018-02-25T10:59:07.119Z,4.73
2018-02-25T11:01:35.333Z,3.70
2018-02-25T11:04:02.768Z,4.40
2018-02-25T11:06:30.975Z,4.23
2018-02-25T11:08:58.421Z,4.33
2018-02-25T11:11:26.620Z,3.57
2018-02-25T11:13:54.073Z,3.97
2018-02-25T11:16:22.287Z,3.33
2018-02-25T11:18:49.720Z,4.30
2018-02-25T11:21:17.924Z,3.97
2018-02-25T11:23:45.367Z,3.83
2018-02-25T11:26:12.816Z,4.40
2018-02-25T11:28:40.255Z,3.80
2018-02-25T11:31:07.694Z,3.90
2018-02-25T11:33:35.900Z,5.00
2018-02-25T11:36:03.334Z,4.00
2018-02-25T11:38:31.583Z,3.70
2018-02-25T11:40:59.017Z,3.30
2018-02-25T11:43:26.472Z,4.20
2018-02-25T11:45:53.916Z,4.30
2018-02-25T11:48:21.365Z,4.90
2018-02-25T11:50:48.815Z,4.60
2018-02-25T11:53:16.256Z,4.73
2018-02-25T11:55:43.701Z,4.90
2018-02-25T11:58:11.914Z,3.80
2018-02-25T12:00:39.348Z,4.10
2018-02-25T12:03:06.798Z,4.20
2018-02-25T12:05:34.240Z,3.87
2018-02-25T12:08:01.680Z,5.43
2018-02-25T12:10:29.115Z,4.00
2018-02-25T12:12:57.324Z,2.80
2018-02-25T12:15:24.772Z,4.23
2018-02-25T12:17:52.204Z,4.10
2018-02-25T12:20:19.644Z,5.00
2018-02-25T12:22:47.090Z,3.80
2018-02-25T12:25:15.289Z,4.60
2018-02-25T12:27:42.747Z,3.70
2018-02-25T12:30:10.947Z,3.70
2018-02-25T12:32:38.384Z,4.30
2018-02-25T12:35:06.596Z,4.00
2018-02-25T12:37:34.024Z,5.40
2018-02-25T12:40:01.473Z,4.40
2018-02-25T12:42:28.912Z,5.13
2018-02-25T12:44:56.356Z,4.27
2018-02-25T12:47:24.569Z,4.83
2018-02-25T12:49:52.014Z,3.83
2018-02-25T12:52:20.221Z,4.47
2018-02-25T12:54:47.659Z,5.00
2018-02-25T12:57:15.859Z,3.90
2018-02-25T12:59:43.307Z,4.73
2018-02-25T13:02:11.510Z,4.37
2018-02-25T13:04:39.723Z,4.70
2018-02-25T13:07:07.166Z,6.00
2018-02-25T13:09:34.608Z,5.07
2018-02-25T13:12:02.053Z,4.60
2018-02-25T13:14:29.500Z,3.90
2018-02-25T13:16:56.928Z,4.93
2018-02-25T13:19:25.132Z,5.03
2018-02-25T13:21:52.571Z,4.70
2018-02-25T13:24:20.004Z,4.50
2018-02-25T13:26:47.440Z,4.30
2018-02-25T13:29:14.900Z,5.67
2018-02-25T13:31:42.339Z,4.00
2018-02-25T13:34:09.772Z,3.70
2018-02-25T13:36:37.222Z,4.13
2018-02-25T13:39:04.664Z,4.00
2018-02-25T13:41:32.889Z,3.93
2018-02-25T13:44:00.319Z,4.40
2018-02-25T13:46:27.765Z,3.37
2018-02-25T13:48:55.206Z,3.80
2018-02-25T13:51:22.648Z,4.87
2018-02-25T13:53:50.081Z,3.93
2018-02-25T13:56:18.292Z,3.70
2018-02-25T13:58:45.730Z,4.43
2018-02-25T14:01:13.179Z,4.00
2018-02-25T14:03:40.623Z,3.97
2018-02-25T14:06:08.091Z,3.43
2018-02-25T14:08:35.532Z,3.27
2018-02-25T14:11:02.990Z,4.40
2018-02-25T14:13:30.439Z,3.60
2018-02-25T14:15:58.657Z,4.43
2018-02-25T14:18:26.091Z,4.13
2018-02-25T14:20:54.304Z,4.50
2018-02-25T14:23:21.743Z,3.77
2018-02-25T14:25:49.188Z,4.17
2018-02-25T14:28:16.682Z,4.67
2018-02-25T14:30:44.891Z,3.93
2018-02-25T14:33:12.341Z,4.23
2018-02-25T14:35:40.560Z,4.50
2018-02-25T14:38:08.009Z,3.80
2018-02-25T14:40:35.452Z,3.53
2018-02-25T14:43:02.907Z,3.83
2018-02-25T14:45:30.343Z,4.60
2018-02-25T14:47:57.788Z,3.77
2018-02-25T14:50:25.240Z,4.60
2018-02-25T14:52:53.444Z,3.90
2018-02-25T14:55:20.891Z,3.73
2018-02-25T14:57:49.104Z,4.10
2018-02-25T15:00:16.547Z,3.83
2018-02-25T15:02:44.761Z,4.13
2018-02-25T15:05:12.193Z,4.40
2018-02-25T15:07:40.411Z,4.20
2018-02-25T15:10:07.845Z,3.10
2018-02-25T15:12:35.284Z,3.73
2018-02-25T15:15:02.725Z,4.00
2018-02-25T15:17:30.169Z,4.10
2018-02-25T15:19:57.600Z,4.10
2018-02-25T15:22:25.044Z,4.37
2018-02-25T15:24:52.482Z,4.37
2018-02-25T15:27:19.932Z,4.13
2018-02-25T15:29:48.137Z,3.63
2018-02-25T15:32:15.590Z,3.37
2018-02-25T15:34:43.789Z,4.20
2018-02-25T15:37:11.216Z,4.57
2018-02-25T15:39:38.685Z,4.67
2018-02-25T15:42:06.129Z,4.20
2018-02-25T15:44:33.564Z,4.90
2018-02-25T15:47:01.000Z,3.90
2018-02-25T15:49:28.440Z,4.23
2018-02-25T15:51:55.876Z,3.73
2018-02-25T15:54:23.321Z,4.50
2018-02-25T15:56:51.521Z,3.20
2018-02-25T15:59:18.968Z,3.77
2018-02-25T16:01:47.181Z,3.97
2018-02-25T16:04:14.624Z,4.60
2018-02-25T16:06:42.825Z,4.37
2018-02-25T16:09:10.269Z,4.70
2018-02-25T16:11:38.477Z,4.33
2018-02-25T16:14:05.917Z,4.53
2018-02-25T16:16:33.358Z,4.43
2018-02-25T16:19:00.796Z,4.33
2018-02-25T16:21:28.227Z,4.03
2018-02-25T16:23:56.432Z,4.40
2018-02-25T16:26:23.868Z,3.80
2018-02-25T16:28:51.312Z,4.87
2018-02-25T16:31:18.751Z,3.87
2018-02-25T16:33:46.192Z,4.03
2018-02-25T16:36:14.401Z,3.97
2018-02-25T16:38:41.846Z,4.13
2018-02-25T16:41:10.051Z,4.40
2018-02-25T16:43:37.499Z,3.50
2018-02-25T16:46:05.702Z,4.40
2018-02-25T16:48:33.144Z,4.80
2018-02-25T16:51:01.357Z,4.50
2018-02-25T16:53:28.824Z,4.00
2018-02-25T16:55:56.274Z,4.57
2018-02-25T16:58:24.475Z,5.50
2018-02-25T17:00:51.930Z,4.90
2018-02-25T17:03:20.133Z,3.87
2018-02-25T17:05:47.576Z,4.00
2018-02-25T17:08:15.775Z,4.80
2018-02-25T17:10:43.991Z,6.40
2018-02-25T17:13:11.428Z,4.80
2018-02-25T17:15:39.640Z,3.60
2018-02-25T17:18:07.080Z,4.67
2018-02-25T17:20:35.294Z,3.30
2018-02-25T17:23:02.736Z,4.20
2018-02-25T17:25:30.944Z,4.33
2018-02-25T17:27:58.411Z,5.10
2018-02-25T17:30:26.602Z,5.07
2018-02-25T17:32:54.032Z,4.30
2018-02-25T17:35:22.240Z,4.47
2018-02-25T17:37:49.671Z,4.77
2018-02-25T17:40:17.116Z,4.43
2018-02-25T17:42:44.564Z,5.07
2018-02-25T17:45:12.007Z,4.07
2018-02-25T17:47:40.208Z,3.80
2018-02-25T17:50:07.655Z,3.97
2018-02-25T17:52:35.862Z,4.57
2018-02-25T17:55:03.308Z,4.30
2018-02-25T17:57:31.517Z,4.50
2018-02-25T17:59:58.992Z,3.43
2018-02-25T18:02:26.437Z,3.47
2018-02-25T18:04:54.657Z,4.10
2018-02-25T18:07:22.104Z,4.17
2018-02-25T18:09:49.549Z,3.90
2018-02-25T18:12:17.760Z,5.00
2018-02-25T18:14:45.210Z,4.00
2018-02-25T18:17:13.417Z,3.50
2018-02-25T18:19:40.869Z,4.37
2018-02-25T18:22:09.067Z,7.20
2018-02-25T18:24:36.516Z,4.30
2018-02-25T18:27:04.717Z,4.17
2018-02-25T18:29:32.160Z,4.20
2018-02-25T18:32:00.371Z,4.50
2018-02-25T18:34:27.809Z,4.37
2018-02-25T18:36:55.247Z,4.80
2018-02-25T18:39:22.676Z,5.00
2018-02-25T18:41:50.135Z,4.37
2018-02-25T18:44:18.339Z,5.17
2018-02-25T18:46:45.788Z,4.93
2018-02-25T18:49:14.004Z,5.30
2018-02-25T18:51:41.460Z,4.97
2018-02-25T18:54:08.896Z,4.33
2018-02-25T18:56:36.346Z,4.83
2018-02-25T18:59:03.784Z,4.50
2018-02-25T19:01:31.220Z,4.00
2018-02-25T19:03:58.659Z,4.70
2018-02-25T19:06:26.105Z,5.07
2018-02-25T19:08:53.540Z,5.20
2018-02-25T19:11:20.989Z,4.63
2018-02-25T19:13:49.192Z,4.30
2018-02-25T19:16:16.644Z,4.50
2018-02-25T19:18:44.862Z,4.77
2018-02-25T19:21:12.301Z,4.27
2018-02-25T19:23:40.504Z,4.40
2018-02-25T19:26:07.949Z,4.50
2018-02-25T19:28:36.159Z,3.80
2018-02-25T19:31:03.610Z,4.23
2018-02-25T19:33:31.803Z,3.70
2018-02-25T19:36:04.868Z,4.40
2018-02-25T19:38:38.032Z,4.60
2018-02-25T19:41:11.186Z,4.50
2018-02-25T19:43:39.386Z,4.00
2018-02-25T19:46:07.654Z,3.80
2018-02-25T19:48:35.088Z,3.90
2018-02-25T19:51:02.540Z,4.40
2018-02-25T19:53:29.985Z,3.53
2018-02-25T19:55:57.424Z,3.77
2018-02-25T19:58:24.856Z,4.40
2018-02-25T20:00:52.300Z,4.07
2018-02-25T20:03:19.736Z,4.40
2018-02-25T20:05:47.945Z,4.20
2018-02-25T20:08:15.376Z,3.73
2018-02-25T20:10:42.815Z,3.87
2018-02-25T20:13:10.252Z,3.50
2018-02-25T20:15:37.696Z,4.07
2018-02-25T20:18:05.901Z,3.70
2018-02-25T20:20:33.344Z,3.00
2018-02-25T20:23:01.557Z,4.13
2018-02-25T20:25:29.032Z,3.40
2018-02-25T20:27:56.456Z,3.00
2018-02-25T20:30:23.908Z,4.07
2018-02-25T20:32:51.348Z,3.27
2018-02-25T20:35:18.857Z,4.03
2018-02-25T20:37:46.296Z,3.57
2018-02-25T20:40:13.737Z,3.63
2018-02-25T20:42:41.181Z,4.03
2018-02-25T20:45:09.390Z,3.47
2018-02-25T20:47:36.831Z,3.80
2018-02-25T20:50:05.041Z,4.60
2018-02-25T20:52:32.485Z,3.80
2018-02-25T20:55:00.692Z,3.50
2018-02-25T20:57:28.133Z,3.87
2018-02-25T20:59:55.569Z,4.23
2018-02-25T21:02:23.023Z,4.90
2018-02-25T21:04:50.469Z,3.60
2018-02-25T21:07:17.923Z,3.83
2018-02-25T21:09:46.128Z,3.10
2018-02-25T21:12:13.572Z,3.80
2018-02-25T21:14:41.772Z,3.67
2018-02-25T21:17:09.216Z,3.43
2018-02-25T21:19:37.420Z,4.30
2018-02-25T21:22:04.872Z,3.90
2018-02-25T21:24:33.075Z,4.47
2018-02-25T21:27:00.516Z,4.23
2018-02-25T21:29:27.951Z,4.20
2018-02-25T21:31:56.164Z,3.50
2018-02-25T21:34:23.603Z,4.33
2018-02-25T21:36:51.045Z,4.30
2018-02-25T21:39:18.480Z,5.10
2018-02-25T21:41:46.700Z,4.50
2018-02-25T21:44:14.188Z,4.70
2018-02-25T21:46:41.631Z,3.83
2018-02-25T21:49:09.119Z,4.20
2018-02-25T21:51:36.511Z,4.23
2018-02-25T21:54:03.948Z,4.10
2018-02-25T21:56:37.016Z,4.50
2018-02-25T21:59:10.956Z,3.37
2018-02-25T22:01:44.069Z,4.00
2018-02-25T22:04:11.512Z,4.83
2018-02-25T22:06:39.734Z,4.47
2018-02-25T22:09:07.177Z,3.83
2018-02-25T22:11:34.619Z,4.23
2018-02-25T22:14:02.056Z,3.33
2018-02-25T22:16:29.500Z,4.20
2018-02-25T22:18:56.944Z,3.27
2018-02-25T22:21:25.149Z,4.90
2018-02-25T22:23:52.591Z,5.17
2018-02-25T22:26:20.803Z,4.03
2018-02-25T22:28:48.248Z,4.67
2018-02-25T22:31:16.444Z,4.27
2018-02-25T22:33:43.896Z,3.70
2018-02-25T22:36:12.104Z,3.07
2018-02-25T22:38:39.543Z,3.60
2018-02-25T22:41:07.757Z,4.03
2018-02-25T22:43:35.214Z,5.20
2018-02-25T22:46:03.421Z,5.13
2018-02-25T22:48:30.869Z,4.37
2018-02-25T22:50:59.077Z,3.43
2018-02-25T22:53:26.519Z,3.67
2018-02-25T22:55:54.721Z,3.90
2018-02-25T22:58:22.162Z,3.53
2018-02-25T23:00:49.597Z,4.30
2018-02-25T23:03:17.050Z,3.60
2018-02-25T23:05:44.481Z,4.10
2018-02-25T23:08:12.689Z,4.10
2018-02-25T23:10:40.125Z,4.10
2018-02-25T23:13:08.331Z,3.80
2018-02-25T23:15:35.772Z,4.47
2018-02-25T23:18:03.986Z,3.53
2018-02-25T23:20:31.423Z,4.03
2018-02-25T23:22:59.644Z,3.80
2018-02-25T23:25:27.084Z,3.30
2018-02-25T23:27:55.300Z,4.43
2018-02-25T23:30:22.741Z,4.30
2018-02-25T23:32:50.975Z,3.50
2018-02-25T23:35:18.392Z,4.17
2018-02-25T23:37:46.613Z,4.00
2018-02-25T23:40:14.054Z,3.87
2018-02-25T23:42:42.263Z,3.73
2018-02-25T23:45:09.701Z,3.67
2018-02-25T23:47:37.916Z,4.37
2018-02-25T23:50:05.359Z,3.57
2018-02-25T23:52:33.567Z,3.67
2018-02-25T23:55:01.013Z,4.07
2018-02-25T23:57:29.227Z,4.43
2018-02-25T23:59:56.660Z,2.93
